Time;durP1;ratioP1;P1;durP2;ratioP2;P2;SDS_P1;SDS_P2;PMS_P1;PMS_P2;Temp;Humidity;BMP_temperature;BMP_pressure;BME280_temperature;BME280_humidity;BME280_pressure;Samples;Min_cycle;Max_cycle;Signal;HPM_P1;HPM_P2
2023/09/26 00:02:21;;;;;;;7.50;2.30;;;;;;;13.07;91.77;101029.59;105747;1252;68407;-64
2023/09/26 00:05:09;;;;;;;10.20;2.40;;;;;;;13.08;91.63;101029.72;105859;1254;74303;-63
2023/09/26 00:08:03;;;;;;;8.30;2.50;;;;;;;13.10;91.50;101027.64;105811;1256;61051;-63
2023/09/26 00:10:51;;;;;;;10.10;2.50;;;;;;;13.10;91.44;101027.59;105600;1256;62252;-64
2023/09/26 00:13:48;;;;;;;8.10;2.40;;;;;;;13.13;91.50;101025.45;105158;1259;72778;-61
2023/09/26 00:16:36;;;;;;;7.60;2.40;;;;;;;13.15;91.53;101026.93;105309;1259;68441;-64
2023/09/26 00:19:25;;;;;;;8.50;2.40;;;;;;;13.16;91.12;101026.30;105251;1263;72080;-63
2023/09/26 00:22:13;;;;;;;7.30;2.50;;;;;;;13.16;90.94;101024.30;105310;1264;60000;-63
2023/09/26 00:25:01;;;;;;;7.30;2.00;;;;;;;13.15;90.93;101022.07;105089;1263;62027;-64
2023/09/26 00:27:52;;;;;;;7.50;2.20;;;;;;;13.16;90.97;101021.48;105308;1263;72769;-62
2023/09/26 00:30:41;;;;;;;8.40;2.50;;;;;;;13.15;90.83;101017.79;105353;1259;69551;-63
2023/09/26 00:33:32;;;;;;;8.40;2.20;;;;;;;13.16;90.76;101017.21;105275;1260;74330;-64
2023/09/26 00:36:20;;;;;;;7.10;2.20;;;;;;;13.17;90.76;101021.94;105296;1260;59429;-64
2023/09/26 00:39:08;;;;;;;8.30;2.20;;;;;;;13.17;90.72;101024.79;105314;1258;60826;-66
2023/09/26 00:41:56;;;;;;;6.90;2.20;;;;;;;13.15;90.62;101022.11;105345;1260;72698;-65
2023/09/26 00:44:44;;;;;;;7.10;2.50;;;;;;;13.13;90.88;101027.26;105543;1256;68522;-65
2023/09/26 00:47:35;;;;;;;7.00;2.50;;;;;;;13.13;91.08;101027.26;105844;1254;73269;-64
2023/09/26 00:50:23;;;;;;;11.70;2.50;;;;;;;13.15;91.05;101031.36;105841;1256;59983;-62
2023/09/26 00:53:11;;;;;;;7.50;2.60;;;;;;;13.19;90.94;101028.05;105846;1256;61798;-64
2023/09/26 00:56:00;;;;;;;8.20;2.60;;;;;;;13.24;91.04;101026.79;105955;1256;72610;-66
2023/09/26 00:58:49;;;;;;;8.30;2.10;;;;;;;13.30;91.05;101032.77;105950;1254;68241;-66
2023/09/26 01:01:37;;;;;;;6.50;2.40;;;;;;;13.34;90.68;101028.38;105886;1256;74163;-67
2023/09/26 01:04:27;;;;;;;7.10;2.50;;;;;;;13.38;90.62;101027.55;105719;1254;59324;-64
2023/09/26 01:07:15;;;;;;;7.70;2.40;;;;;;;13.42;90.63;101032.10;105875;1252;61938;-63
2023/09/26 01:10:07;;;;;;;8.30;2.50;;;;;;;13.45;90.52;101031.70;105537;1254;71743;-67
2023/09/26 01:12:56;;;;;;;7.30;2.30;;;;;;;13.48;90.65;101036.08;105757;1254;68416;-64
2023/09/26 01:15:44;;;;;;;8.60;2.90;;;;;;;13.52;90.71;101034.74;105633;1254;72286;-64
2023/09/26 01:18:33;;;;;;;7.90;2.80;;;;;;;13.53;90.65;101037.66;105756;1256;60427;-63
2023/09/26 01:21:21;;;;;;;9.30;2.60;;;;;;;13.56;90.71;101035.29;105681;1256;61863;-62
2023/09/26 01:24:09;;;;;;;7.20;2.80;;;;;;;13.61;90.50;101034.73;105798;1254;73527;-62
2023/09/26 01:26:57;;;;;;;8.20;2.80;;;;;;;13.65;90.56;101028.22;105878;1254;68406;-62
2023/09/26 01:29:48;;;;;;;8.70;2.50;;;;;;;13.73;89.96;101027.67;105732;1257;73072;-63
2023/09/26 01:32:36;;;;;;;10.40;2.80;;;;;;;13.77;89.81;101025.92;105645;1253;59749;-63
2023/09/26 01:35:24;;;;;;;10.20;2.70;;;;;;;13.80;89.56;101026.23;105810;1254;61635;-62
2023/09/26 01:38:12;;;;;;;8.90;2.60;;;;;;;13.84;89.31;101024.72;105758;1253;73497;-63
2023/09/26 01:41:00;;;;;;;8.70;2.70;;;;;;;13.87;89.19;101021.43;105821;1256;68161;-64
2023/09/26 01:43:49;;;;;;;8.00;2.80;;;;;;;13.90;89.05;101020.63;105722;1254;72075;-62
2023/09/26 01:46:38;;;;;;;10.90;2.60;;;;;;;13.92;88.80;101016.54;105773;1254;60150;-64
2023/09/26 01:49:27;;;;;;;9.90;2.80;;;;;;;13.96;88.55;101012.16;105842;1256;59761;-63
2023/09/26 01:52:15;;;;;;;8.20;2.80;;;;;;;13.99;88.51;101012.97;105864;1254;72529;-63
2023/09/26 01:55:06;;;;;;;7.30;2.60;;;;;;;14.01;88.48;101012.32;105773;1253;68383;-63
2023/09/26 01:57:56;;;;;;;8.20;2.70;;;;;;;14.01;88.21;101014.63;105660;1258;71974;-63
2023/09/26 02:00:44;;;;;;;7.30;2.40;;;;;;;14.00;88.24;101015.98;105697;1254;60206;-64
2023/09/26 02:03:33;;;;;;;8.20;2.80;;;;;;;14.00;88.11;101011.00;105727;1253;60655;-63
2023/09/26 02:06:21;;;;;;;8.40;2.60;;;;;;;14.01;88.02;101009.43;105810;1254;73522;-63
2023/09/26 02:09:10;;;;;;;7.60;2.70;;;;;;;14.03;88.07;101003.08;105742;1256;67801;-63
2023/09/26 02:11:57;;;;;;;7.50;2.60;;;;;;;14.05;87.77;101001.48;105592;1256;72120;-63
2023/09/26 02:14:45;;;;;;;7.10;2.80;;;;;;;14.08;87.67;101001.58;105811;1256;59609;-62
2023/09/26 02:17:37;;;;;;;7.30;2.50;;;;;;;14.11;87.60;101001.17;105673;1257;59677;-62
2023/09/26 02:20:25;;;;;;;10.70;2.60;;;;;;;14.14;87.41;100997.89;105729;1257;248123;-63
2023/09/26 02:23:13;;;;;;;7.90;2.70;;;;;;;14.15;87.18;100997.98;105517;1254;68223;-63
2023/09/26 02:26:01;;;;;;;7.60;2.60;;;;;;;14.16;87.17;100996.14;105806;1256;73087;-62
2023/09/26 02:28:49;;;;;;;8.30;2.80;;;;;;;14.18;87.05;100994.95;105623;1254;59679;-62
2023/09/26 02:31:37;;;;;;;8.30;2.80;;;;;;;14.21;86.94;100993.66;105823;1254;60742;-62
2023/09/26 02:34:25;;;;;;;7.30;2.80;;;;;;;14.24;86.53;100990.69;105759;1252;73516;-63
2023/09/26 02:37:13;;;;;;;8.90;2.80;;;;;;;14.27;86.51;100986.55;105891;1253;69387;-62
2023/09/26 02:40:05;;;;;;;8.40;2.70;;;;;;;14.28;86.44;100986.08;105960;1254;74324;-63
2023/09/26 02:42:54;;;;;;;9.40;2.60;;;;;;;14.31;86.19;100988.92;105813;1253;59592;-61
2023/09/26 02:45:42;;;;;;;8.70;2.50;;;;;;;14.33;86.40;100985.91;105659;1256;59762;-69
2023/09/26 02:48:31;;;;;;;7.10;2.70;;;;;;;14.34;86.08;100984.02;105527;1253;73602;-66
2023/09/26 02:51:20;;;;;;;7.10;2.50;;;;;;;14.36;86.16;100984.95;105951;1256;68441;-63
2023/09/26 02:54:07;;;;;;;7.70;2.60;;;;;;;14.39;85.76;100985.13;105756;1254;74164;-60
2023/09/26 02:56:58;;;;;;;8.70;3.20;;;;;;;14.42;85.91;100982.73;105577;1253;59608;-64
2023/09/26 02:59:46;;;;;;;8.30;2.60;;;;;;;14.44;85.51;100977.70;105815;1254;60899;-63
2023/09/26 03:02:35;;;;;;;7.60;2.90;;;;;;;14.47;85.34;100981.05;105982;1253;73520;-65
2023/09/26 03:05:23;;;;;;;8.40;2.60;;;;;;;14.48;85.22;100981.36;105625;1257;68722;-64
2023/09/26 03:08:11;;;;;;;8.60;2.80;;;;;;;14.47;85.13;100980.30;105592;1254;73279;-63
2023/09/26 03:11:00;;;;;;;9.30;2.50;;;;;;;14.48;85.18;100981.49;105740;1258;60340;-64
2023/09/26 03:13:48;;;;;;;8.80;2.70;;;;;;;14.49;85.00;100981.42;105757;1254;60823;-63
2023/09/26 03:16:38;;;;;;;7.50;2.70;;;;;;;14.51;84.88;100977.17;105895;1254;74582;-64
2023/09/26 03:19:26;;;;;;;7.20;2.50;;;;;;;14.53;84.90;100973.09;105924;1256;67454;-64
2023/09/26 03:22:15;;;;;;;9.10;3.00;;;;;;;14.54;84.82;100977.64;105590;1256;74133;-65
2023/09/26 03:25:03;;;;;;;9.90;3.10;;;;;;;14.54;85.11;100974.06;105916;1254;61076;-66
2023/09/26 03:28:01;;;;;;;8.60;3.10;;;;;;;14.55;85.07;100974.55;105613;1256;59556;-63
2023/09/26 03:30:49;;;;;;;6.80;2.70;;;;;;;14.55;84.83;100972.23;105642;1254;73882;-64
2023/09/26 03:33:38;;;;;;;7.80;2.60;;;;;;;14.55;84.93;100969.01;105527;1256;68086;-65
2023/09/26 03:36:27;;;;;;;7.50;3.00;;;;;;;14.56;84.76;100964.79;105405;1254;73093;-66
2023/09/26 03:39:15;;;;;;;7.70;2.30;;;;;;;14.57;84.98;100963.10;105725;1253;59599;-64
2023/09/26 03:42:04;;;;;;;9.80;2.90;;;;;;;14.57;84.97;100956.85;105790;1256;60197;-63
2023/09/26 03:44:53;;;;;;;7.90;2.40;;;;;;;14.58;85.01;100956.96;105823;1256;74502;-64
2023/09/26 03:47:41;;;;;;;9.20;2.80;;;;;;;14.58;84.89;100953.76;105631;1254;68302;-63
2023/09/26 03:50:29;;;;;;;11.80;3.00;;;;;;;14.59;84.89;100956.02;105614;1257;73517;-65
2023/09/26 03:53:18;;;;;;;7.60;2.50;;;;;;;14.60;84.90;100950.53;105499;1254;59602;-65
2023/09/26 03:56:07;;;;;;;9.50;2.80;;;;;;;14.62;85.03;100945.23;105855;1252;60937;-64
2023/09/26 03:58:57;;;;;;;7.60;2.70;;;;;;;14.62;85.00;100948.44;105780;1254;73525;-63
2023/09/26 04:01:47;;;;;;;8.50;2.50;;;;;;;14.62;85.02;100952.75;105303;1257;67245;-63
2023/09/26 04:04:35;;;;;;;7.30;2.90;;;;;;;14.61;85.11;100950.80;105623;1254;72044;-64
2023/09/26 04:07:28;;;;;;;9.60;2.90;;;;;;;14.62;85.06;100954.51;105844;1259;60102;-65
2023/09/26 04:10:16;;;;;;;7.70;2.70;;;;;;;14.64;85.23;100949.92;105753;1254;60031;-63
2023/09/26 04:13:04;;;;;;;7.50;3.10;;;;;;;14.66;85.16;100950.31;105802;1257;74580;-65
2023/09/26 04:15:52;;;;;;;8.70;2.90;;;;;;;14.67;85.10;100951.84;105835;1258;67057;-62
2023/09/26 04:18:40;;;;;;;10.00;2.90;;;;;;;14.68;85.17;100947.10;105693;1259;72412;-62
2023/09/26 04:21:28;;;;;;;8.30;2.90;;;;;;;14.68;85.06;100945.48;105439;1253;59701;-62
2023/09/26 04:24:16;;;;;;;9.60;3.10;;;;;;;14.66;84.98;100943.64;105735;1259;59619;-63
2023/09/26 04:27:04;;;;;;;8.60;2.80;;;;;;;14.65;84.97;100946.08;105786;1253;73236;-66
2023/09/26 04:29:53;;;;;;;9.40;3.10;;;;;;;14.66;85.18;100943.35;105831;1259;67996;-67
2023/09/26 04:32:40;;;;;;;7.80;2.90;;;;;;;14.66;85.11;100940.48;106146;1257;72029;-65
2023/09/26 04:35:29;;;;;;;7.90;3.40;;;;;;;14.68;85.28;100937.86;106039;1257;59743;-65
2023/09/26 04:38:19;;;;;;;10.80;3.00;;;;;;;14.69;85.24;100937.56;105960;1254;61070;-63
2023/09/26 04:41:07;;;;;;;8.00;2.90;;;;;;;14.71;85.27;100938.84;106062;1254;73929;-64
2023/09/26 04:43:55;;;;;;;8.10;3.20;;;;;;;14.71;85.38;100943.27;105880;1253;67447;-67
2023/09/26 04:46:45;;;;;;;8.30;3.20;;;;;;;14.73;85.43;100942.78;105666;1254;74253;-66
2023/09/26 04:49:34;;;;;;;8.60;3.20;;;;;;;14.75;85.33;100942.40;105769;1254;59720;-65
2023/09/26 04:52:24;;;;;;;8.00;3.00;;;;;;;14.78;85.39;100944.13;105893;1254;59666;-64
2023/09/26 04:55:12;;;;;;;10.10;3.40;;;;;;;14.82;85.57;100937.40;105712;1256;74609;-64
2023/09/26 04:58:00;;;;;;;9.30;3.30;;;;;;;14.85;85.37;100936.95;105534;1253;67034;-62
2023/09/26 05:00:49;;;;;;;9.00;3.60;;;;;;;14.88;85.32;100934.97;105733;1254;73298;-63
2023/09/26 05:03:37;;;;;;;8.80;3.20;;;;;;;14.91;85.51;100934.51;105998;1254;59647;-64
2023/09/26 05:06:29;;;;;;;7.90;3.30;;;;;;;14.94;85.42;100930.14;105770;1253;61873;-63
2023/09/26 05:09:17;;;;;;;7.30;3.40;;;;;;;14.99;85.38;100927.58;105579;1252;72199;-61
2023/09/26 05:12:06;;;;;;;11.50;3.80;;;;;;;15.04;85.29;100924.89;105817;1254;68184;-62
2023/09/26 05:14:55;;;;;;;14.50;3.50;;;;;;;15.08;85.09;100923.98;105625;1255;73097;-63
2023/09/26 05:17:50;;;;;;;9.60;3.00;;;;;;;15.13;84.95;100925.34;105474;1251;59714;-64
2023/09/26 05:20:38;;;;;;;9.90;3.20;;;;;;;15.18;84.76;100922.31;105690;1252;60840;-63
2023/09/26 05:23:26;;;;;;;8.40;3.30;;;;;;;15.22;84.73;100924.83;105498;1254;73316;-62
2023/09/26 05:26:14;;;;;;;8.90;3.10;;;;;;;15.26;84.77;100922.90;105960;1256;68503;-65
2023/09/26 05:29:03;;;;;;;10.10;3.10;;;;;;;15.29;84.51;100926.48;106075;1251;72242;-65
2023/09/26 05:31:51;;;;;;;8.70;3.00;;;;;;;15.33;84.27;100925.86;105814;1256;60057;-65
2023/09/26 05:34:39;;;;;;;9.90;3.50;;;;;;;15.37;84.19;100928.18;105634;1258;59662;-65
2023/09/26 05:37:27;;;;;;;9.50;3.00;;;;;;;15.41;84.03;100928.20;105943;1252;73605;-63
2023/09/26 05:40:15;;;;;;;9.70;3.60;;;;;;;15.46;83.87;100932.48;105916;1256;68133;-65
2023/09/26 05:43:03;;;;;;;13.00;3.40;;;;;;;15.51;83.69;100935.45;105922;1256;74095;-66
2023/09/26 05:45:52;;;;;;;14.00;3.80;;;;;;;15.53;83.75;100935.77;105908;1256;59717;-67
2023/09/26 05:48:40;;;;;;;11.10;3.60;;;;;;;15.55;83.52;100938.30;105874;1255;61169;-65
2023/09/26 05:51:28;;;;;;;13.80;3.30;;;;;;;15.56;83.07;100938.09;105940;1254;73626;-64
2023/09/26 05:54:16;;;;;;;11.50;3.30;;;;;;;15.57;83.11;100937.58;106078;1254;68547;-64
2023/09/26 05:57:18;;;;;;;12.00;3.50;;;;;;;15.59;82.93;100939.39;105955;1257;73402;-64
2023/09/26 06:00:12;;;;;;;14.30;3.90;;;;;;;15.61;82.88;100941.77;105851;1254;59721;-63
2023/09/26 06:03:01;;;;;;;12.40;3.90;;;;;;;15.63;82.78;100936.91;105877;1256;61667;-65
2023/09/26 06:05:50;;;;;;;12.10;3.50;;;;;;;15.65;82.76;100939.45;105895;1255;74417;-66
2023/09/26 06:08:40;;;;;;;14.10;4.20;;;;;;;15.66;82.80;100936.06;105989;1255;67247;-65
2023/09/26 06:11:28;;;;;;;13.00;4.00;;;;;;;15.69;82.73;100936.44;105662;1256;73319;-65
2023/09/26 06:14:16;;;;;;;11.00;4.00;;;;;;;15.71;82.80;100941.04;105889;1256;60896;-67
2023/09/26 06:17:04;;;;;;;10.60;3.40;;;;;;;15.75;82.64;100943.21;105938;1252;59618;-64
2023/09/26 06:19:55;;;;;;;15.30;3.90;;;;;;;15.79;82.58;100948.98;105957;1252;73115;-68
2023/09/26 06:22:43;;;;;;;11.50;3.50;;;;;;;15.85;82.60;100949.79;105903;1255;67290;-63
2023/09/26 06:25:31;;;;;;;12.90;3.70;;;;;;;15.89;82.68;100950.46;105960;1254;72466;-65
2023/09/26 06:28:30;;;;;;;9.50;3.50;;;;;;;15.95;82.46;100945.65;105944;1254;59608;-66
2023/09/26 06:31:18;;;;;;;9.70;3.70;;;;;;;16.00;82.52;100943.07;105875;1254;59916;-66
2023/09/26 06:34:06;;;;;;;11.30;4.30;;;;;;;16.04;82.30;100946.70;105894;1254;72609;-67
2023/09/26 06:36:54;;;;;;;10.20;3.80;;;;;;;16.07;82.23;100944.77;105883;1255;67685;-66
2023/09/26 06:39:44;;;;;;;10.50;3.50;;;;;;;16.11;82.22;100937.64;105744;1254;73280;-68
2023/09/26 06:42:33;;;;;;;9.30;3.80;;;;;;;16.16;82.06;100938.67;105834;1257;59717;-63
2023/09/26 06:45:26;;;;;;;9.30;4.00;;;;;;;16.20;82.27;100936.69;105768;1256;59564;-64
2023/09/26 06:48:14;;;;;;;11.90;4.10;;;;;;;16.24;81.72;100937.55;105696;1256;74558;-66
2023/09/26 06:51:02;;;;;;;11.40;4.00;;;;;;;16.27;81.59;100936.27;105824;1256;67047;-63
2023/09/26 06:53:51;;;;;;;12.50;4.30;;;;;;;16.32;81.70;100934.60;105685;1256;72097;-66
2023/09/26 06:56:39;;;;;;;9.70;3.90;;;;;;;16.39;81.53;100938.13;106019;1255;61113;-63
2023/09/26 06:59:28;;;;;;;10.50;4.00;;;;;;;16.45;81.32;100936.81;105856;1256;61591;-63
2023/09/26 07:02:17;;;;;;;12.40;4.40;;;;;;;16.49;81.21;100944.16;105774;1256;74114;-63
2023/09/26 07:05:06;;;;;;;9.00;4.00;;;;;;;16.53;80.83;100938.79;105918;1254;67281;-62
2023/09/26 07:07:54;;;;;;;12.50;4.10;;;;;;;16.54;80.81;100938.20;105543;1255;72289;-63
2023/09/26 07:10:42;;;;;;;9.80;3.90;;;;;;;16.57;80.93;100940.84;105818;1256;59653;-65
2023/09/26 07:13:30;;;;;;;9.40;4.00;;;;;;;16.61;80.92;100940.26;105918;1252;60597;-65
2023/09/26 07:16:24;;;;;;;9.60;4.00;;;;;;;16.69;80.84;100942.27;105542;1252;73477;-64
2023/09/26 07:19:12;;;;;;;10.80;4.30;;;;;;;16.73;80.43;100941.90;105670;1256;68804;-67
2023/09/26 07:22:00;;;;;;;15.40;4.60;;;;;;;16.75;80.42;100941.39;105914;1259;73797;-65
2023/09/26 07:24:49;;;;;;;11.50;4.20;;;;;;;16.78;80.35;100948.02;105738;1257;59778;-63
2023/09/26 07:27:37;;;;;;;12.50;4.20;;;;;;;16.82;80.22;100945.55;105707;1255;60611;-65
2023/09/26 07:30:25;;;;;;;11.80;4.30;;;;;;;16.87;80.04;100946.89;105916;1256;73366;-64
2023/09/26 07:33:13;;;;;;;12.30;4.00;;;;;;;16.94;79.86;100945.92;105802;1257;69111;-64
2023/09/26 07:36:02;;;;;;;11.40;4.40;;;;;;;17.02;79.99;100942.86;105908;1257;73846;-66
2023/09/26 07:38:51;;;;;;;9.10;3.90;;;;;;;17.07;79.61;100940.63;105908;1257;59742;-68
2023/09/26 07:41:39;;;;;;;10.10;4.00;;;;;;;17.09;79.60;100943.70;106001;1251;60772;-64
2023/09/26 07:44:26;;;;;;;9.70;4.00;;;;;;;17.10;79.49;100944.88;105586;1256;73829;-64
2023/09/26 07:47:15;;;;;;;11.60;4.20;;;;;;;17.13;79.70;100945.60;105821;1256;69534;-65
2023/09/26 07:50:05;;;;;;;11.10;4.50;;;;;;;17.16;79.64;100944.80;105801;1251;74141;-66
2023/09/26 07:52:53;;;;;;;14.30;4.40;;;;;;;17.19;79.42;100948.64;105999;1257;61081;-69
2023/09/26 07:55:41;;;;;;;11.50;4.00;;;;;;;17.24;79.40;100953.09;105570;1257;60942;-64
2023/09/26 07:58:29;;;;;;;9.80;4.30;;;;;;;17.30;79.32;100955.89;105733;1252;74625;-65
2023/09/26 08:01:17;;;;;;;10.20;4.00;;;;;;;17.33;78.76;100953.15;105844;1255;67258;-65
2023/09/26 08:04:07;;;;;;;15.90;3.90;;;;;;;17.33;78.89;100949.88;105694;1256;73967;-64
2023/09/26 08:06:55;;;;;;;11.20;4.40;;;;;;;17.40;78.78;100946.10;105656;1255;59723;-65
2023/09/26 08:09:43;;;;;;;13.80;4.60;;;;;;;17.48;78.76;100945.46;105932;1256;60922;-64
2023/09/26 08:12:31;;;;;;;10.80;3.80;;;;;;;17.60;78.74;100945.65;105841;1256;72319;-64
2023/09/26 08:15:20;;;;;;;14.60;4.40;;;;;;;17.74;78.42;100947.07;105945;1256;69280;-67
2023/09/26 08:18:08;;;;;;;10.00;4.30;;;;;;;17.86;77.75;100943.02;105696;1260;73259;-67
2023/09/26 08:20:57;;;;;;;11.40;4.20;;;;;;;17.95;77.26;100944.36;105819;1256;60042;-66
2023/09/26 08:23:48;;;;;;;11.20;4.40;;;;;;;18.00;76.82;100942.83;105611;1251;61596;-65
2023/09/26 08:26:37;;;;;;;10.80;4.10;;;;;;;18.08;76.61;100937.92;105746;1257;73432;-67
2023/09/26 08:29:25;;;;;;;10.70;3.80;;;;;;;18.15;76.40;100933.27;105764;1257;66832;-64
2023/09/26 08:32:14;;;;;;;10.70;3.90;;;;;;;18.23;76.10;100931.95;105880;1257;73156;-66
2023/09/26 08:35:02;;;;;;;9.50;3.90;;;;;;;18.34;75.68;100930.39;105547;1256;59605;-66
2023/09/26 08:37:50;;;;;;;13.60;4.40;;;;;;;18.44;75.12;100930.67;105857;1252;61622;-66
2023/09/26 08:40:39;;;;;;;10.90;4.40;;;;;;;18.60;75.11;100926.10;105710;1257;72091;-63
2023/09/26 08:43:27;;;;;;;10.20;4.10;;;;;;;18.83;74.84;100920.96;105773;1256;68213;-64
2023/09/26 08:46:17;;;;;;;12.60;5.00;;;;;;;19.04;73.41;100918.00;105782;1259;73225;-64
2023/09/26 08:49:06;;;;;;;13.90;4.70;;;;;;;19.22;72.86;100917.45;105721;1256;59943;-65
2023/09/26 08:51:54;;;;;;;10.60;4.20;;;;;;;19.39;72.20;100916.83;105737;1251;59595;-64
2023/09/26 08:54:43;;;;;;;9.60;3.90;;;;;;;19.55;71.88;100909.94;105765;1252;73557;-64
2023/09/26 08:57:32;;;;;;;9.60;3.70;;;;;;;19.73;71.39;100912.86;105537;1257;69237;-63
2023/09/26 09:00:22;;;;;;;8.70;3.90;;;;;;;19.89;71.07;100916.11;105785;1255;72683;-65
2023/09/26 09:03:10;;;;;;;10.30;4.20;;;;;;;20.07;70.79;100908.99;105712;1258;59650;-65
2023/09/26 09:06:00;;;;;;;8.00;3.80;;;;;;;20.26;70.21;100910.58;105947;1257;59778;-63
2023/09/26 09:08:49;;;;;;;9.60;4.10;;;;;;;20.43;69.61;100914.60;105917;1256;74325;-63
2023/09/26 09:11:37;;;;;;;9.30;3.70;;;;;;;20.57;69.45;100912.67;105633;1256;69191;-63
2023/09/26 09:14:32;;;;;;;9.00;3.80;;;;;;;20.70;68.85;100912.48;105730;1257;74166;-63
2023/09/26 09:17:21;;;;;;;11.80;4.00;;;;;;;20.77;68.17;100911.92;105648;1257;59657;-64
2023/09/26 09:20:14;;;;;;;9.80;3.50;;;;;;;20.82;67.53;100913.48;105561;1264;60780;-64
2023/09/26 09:23:05;;;;;;;10.40;3.70;;;;;;;20.94;67.93;100916.36;105814;1252;73103;-65
2023/09/26 09:25:53;;;;;;;11.40;3.90;;;;;;;21.01;67.42;100916.29;105512;1256;68407;-63
2023/09/26 09:28:41;;;;;;;10.20;3.30;;;;;;;21.04;67.20;100913.70;105923;1255;72224;-66
2023/09/26 09:31:29;;;;;;;7.30;3.40;;;;;;;21.04;67.00;100915.48;105878;1257;59602;-66
2023/09/26 09:34:19;;;;;;;9.80;3.50;;;;;;;20.97;66.78;100920.07;105920;1256;62169;-64
2023/09/26 09:37:07;;;;;;;8.60;3.50;;;;;;;20.83;66.80;100914.27;105613;1262;72527;-62
2023/09/26 09:39:55;;;;;;;8.10;2.80;;;;;;;20.73;67.00;100912.35;105796;1264;68346;-63
2023/09/26 09:42:44;;;;;;;8.80;3.30;;;;;;;20.71;67.59;100909.41;105934;1256;72330;-65
2023/09/26 09:45:40;;;;;;;8.60;3.20;;;;;;;20.74;68.27;100910.15;106043;1256;59663;-67
2023/09/26 09:48:33;;;;;;;11.70;3.90;;;;;;;20.85;68.53;100910.35;105685;1255;60400;-64
2023/09/26 09:51:23;;;;;;;10.60;3.60;;;;;;;20.96;68.94;100914.52;105838;1253;74516;-63
2023/09/26 09:54:17;;;;;;;11.50;3.60;;;;;;;21.04;68.83;100914.71;105771;1256;67256;-64
2023/09/26 09:57:10;;;;;;;10.40;4.10;;;;;;;21.11;68.90;100909.71;105672;1251;73319;-63
2023/09/26 09:59:59;;;;;;;12.10;3.80;;;;;;;21.14;68.76;100912.10;105815;1254;59721;-64
2023/09/26 10:02:48;;;;;;;16.60;4.40;;;;;;;21.18;68.89;100909.10;105947;1257;60870;-64
2023/09/26 10:05:37;;;;;;;14.80;5.80;;;;;;;21.24;68.86;100906.27;105884;1257;73628;-66
2023/09/26 10:08:27;;;;;;;15.40;5.60;;;;;;;21.34;68.81;100907.89;105803;1258;68397;-64
2023/09/26 10:11:29;;;;;;;13.40;4.70;;;;;;;21.44;68.20;100903.69;105835;1253;73147;-63
2023/09/26 10:14:23;;;;;;;12.00;4.20;;;;;;;21.55;67.19;100904.61;105834;1254;59771;-66
2023/09/26 10:17:12;;;;;;;11.50;4.60;;;;;;;21.65;66.84;100901.45;105771;1255;59544;-64
2023/09/26 10:20:00;;;;;;;13.90;4.50;;;;;;;21.79;66.39;100900.73;105550;1253;73422;-64
2023/09/26 10:23:10;;;;;;;15.00;4.60;;;;;;;21.94;65.93;100900.92;105707;1257;67052;-63
2023/09/26 10:26:01;;;;;;;11.20;4.30;;;;;;;22.10;65.19;100893.61;105885;1254;73019;-64
2023/09/26 10:28:51;;;;;;;12.90;4.40;;;;;;;22.29;64.43;100890.43;105842;1259;59698;-66
2023/09/26 10:31:53;;;;;;;11.90;4.30;;;;;;;22.54;63.80;100884.47;106850;1251;60888;-63
2023/09/26 10:34:44;;;;;;;9.90;4.10;;;;;;;22.90;62.68;100882.17;105990;1251;73619;-65
2023/09/26 10:38:01;;;;;;;11.20;4.40;;;;;;;23.26;61.35;100883.01;105911;1257;68261;-65
2023/09/26 10:40:49;;;;;;;12.20;4.40;;;;;;;23.52;59.92;100881.35;105799;1262;72155;-66
2023/09/26 10:43:37;;;;;;;11.20;4.60;;;;;;;23.66;59.58;100878.72;105611;1260;59813;-66
2023/09/26 10:46:35;;;;;;;12.20;4.60;;;;;;;23.81;59.52;100879.45;105921;1257;60999;-65
2023/09/26 10:49:23;;;;;;;15.40;5.00;;;;;;;23.96;59.21;100878.55;105939;1254;73592;-66
2023/09/26 10:52:14;;;;;;;12.90;4.90;;;;;;;24.03;58.34;100876.17;105767;1254;67641;-65
2023/09/26 10:55:03;;;;;;;10.30;4.60;;;;;;;24.15;58.22;100868.73;105850;1257;73414;-66
2023/09/26 10:57:52;;;;;;;10.70;3.90;;;;;;;24.36;57.19;100866.44;105696;1254;59695;-64
2023/09/26 11:00:50;;;;;;;11.70;4.40;;;;;;;24.45;57.00;100868.92;105912;1256;59821;-66
2023/09/26 11:03:38;;;;;;;10.90;3.90;;;;;;;24.52;55.98;100864.89;105710;1254;73575;-65
2023/09/26 11:06:27;;;;;;;12.10;3.90;;;;;;;24.46;56.38;100864.71;106218;1256;68096;-67
2023/09/26 11:09:16;;;;;;;9.00;4.30;;;;;;;24.38;56.02;100858.94;105818;1251;74125;-63
2023/09/26 11:12:04;;;;;;;11.20;3.80;;;;;;;24.42;56.52;100856.37;105867;1256;59615;-64
2023/09/26 11:14:55;;;;;;;10.20;3.30;;;;;;;24.42;56.13;100857.98;105937;1251;61729;-64
2023/09/26 11:17:49;;;;;;;11.00;3.70;;;;;;;24.33;56.01;100860.30;106568;1254;74462;-63
2023/09/26 11:20:41;;;;;;;8.90;3.30;;;;;;;24.16;56.31;100855.73;107952;1251;67447;-65
2023/09/26 11:23:48;;;;;;;10.30;3.60;;;;;;;23.97;56.56;100855.85;107053;1258;73074;-64
2023/09/26 11:26:37;;;;;;;7.40;3.60;;;;;;;23.89;57.02;100856.29;107863;1251;59653;-66
2023/09/26 11:29:26;;;;;;;9.80;4.00;;;;;;;23.76;57.06;100860.73;106362;1257;59630;-64
2023/09/26 11:32:16;;;;;;;9.10;3.70;;;;;;;23.68;57.74;100860.20;105842;1254;74337;-64
2023/09/26 11:35:06;;;;;;;9.20;3.80;;;;;;;23.88;57.81;100856.73;105844;1251;68216;-63
2023/09/26 11:37:55;;;;;;;8.90;4.00;;;;;;;24.01;57.02;100851.52;106214;1255;73307;-65
2023/09/26 11:40:44;;;;;;;10.40;4.30;;;;;;;23.95;56.92;100847.73;105914;1257;59646;-64
2023/09/26 11:43:41;;;;;;;9.30;4.10;;;;;;;23.87;57.17;100851.10;105836;1251;61909;-64
2023/09/26 11:46:39;;;;;;;11.50;4.50;;;;;;;23.64;57.26;100851.64;105873;1256;73750;-64
2023/09/26 11:49:28;;;;;;;11.20;4.60;;;;;;;23.46;57.80;100848.53;105974;1256;69130;-63
2023/09/26 11:52:17;;;;;;;8.30;3.70;;;;;;;23.26;58.52;100841.04;105816;1254;73348;-64
2023/09/26 11:55:06;;;;;;;9.70;4.10;;;;;;;23.11;59.40;100840.73;105930;1259;59758;-65
2023/09/26 11:57:55;;;;;;;9.10;4.60;;;;;;;22.99;59.95;100844.05;105780;1251;60788;-66
2023/09/26 12:00:43;;;;;;;10.10;4.40;;;;;;;22.85;59.98;100842.72;105919;1256;72635;-63
2023/09/26 12:03:31;;;;;;;11.40;4.40;;;;;;;22.76;60.70;100838.85;105632;1257;69455;-64
2023/09/26 12:06:20;;;;;;;11.10;4.60;;;;;;;22.70;61.20;100834.02;106010;1251;71086;-64
2023/09/26 12:09:21;;;;;;;11.40;4.80;;;;;;;22.71;61.11;100835.31;106002;1251;59733;-65
2023/09/26 12:12:10;;;;;;;9.40;4.60;;;;;;;22.78;61.07;100831.08;105817;1257;60568;-63
2023/09/26 12:15:18;;;;;;;11.40;5.00;;;;;;;23.03;60.57;100824.89;105856;1257;74577;-62
2023/09/26 12:18:06;;;;;;;10.60;4.50;;;;;;;23.34;60.55;100819.80;105869;1257;68369;-65
2023/09/26 12:20:55;;;;;;;10.10;3.90;;;;;;;23.68;59.98;100818.39;105858;1256;73167;-64
2023/09/26 12:23:44;;;;;;;12.20;3.90;;;;;;;23.94;59.24;100811.25;105758;1254;59861;-63
2023/09/26 12:26:32;;;;;;;10.00;4.40;;;;;;;24.12;58.37;100811.86;105910;1257;61252;-63
2023/09/26 12:29:23;;;;;;;11.40;4.50;;;;;;;24.23;57.85;100809.38;105807;1251;72712;-65
2023/09/26 12:32:12;;;;;;;9.20;3.80;;;;;;;24.40;57.94;100801.79;105872;1257;66109;-66
2023/09/26 12:35:04;;;;;;;11.00;4.30;;;;;;;24.59;57.52;100802.37;105329;1257;74267;-64
2023/09/26 12:37:54;;;;;;;9.40;4.10;;;;;;;24.71;57.14;100804.94;105651;1254;59341;-66
2023/09/26 12:40:43;;;;;;;11.10;4.50;;;;;;;24.83;57.15;100803.13;105835;1256;60570;-66
2023/09/26 12:43:31;;;;;;;12.70;4.90;;;;;;;24.86;56.62;100803.11;106507;1257;74676;-66
2023/09/26 12:46:19;;;;;;;10.70;4.40;;;;;;;24.93;56.22;100802.04;105795;1257;68497;-64
2023/09/26 12:49:09;;;;;;;10.00;3.70;;;;;;;25.00;55.73;100803.18;106113;1255;72831;-66
2023/09/26 12:51:58;;;;;;;10.80;4.20;;;;;;;25.01;55.52;100801.19;106030;1257;60015;-67
2023/09/26 12:54:48;;;;;;;9.30;3.60;;;;;;;24.99;55.46;100799.08;105988;1254;60857;-65
2023/09/26 12:57:37;;;;;;;11.20;3.80;;;;;;;24.96;55.61;100798.59;105950;1254;74630;-64